Tümü
Dax-Seyresse Airport LFBY Hava Durumu
|
(LFBY)
Açık
Hafif rüzgârlı |
|
26 °C |
LFBY Terminal Alan Tahmini
| Date | Time (CEST) | Flight Rules | Wind Dir. | Speed | Type | Height AGL (ft) | Visibility | Remarks | ||||||
|---|---|---|---|---|---|---|---|---|---|---|---|---|---|---|
Yakın zamandaki LFBY METAR geçmişi
| Date | Time (CEST) | Flight Rules | Wind Dir. | Speed | Type | Height AGL (ft) | Visibility | Temp (°C) | Temp (°F) | Dew Point (°C) | Dew Point (°F) | Rel. Humid. | Pressure | Density Altitude | Remarks |
|---|---|---|---|---|---|---|---|---|---|---|---|---|---|---|---|
| 06-Eyl | 00:00 | VFR | Variable | 2 kt | 10000 meters | 26° | 78° | 16° | 60° | 54% | 1019 mb | 1.257 ft | |||
| 05-Eyl | 23:30 | VFR | 50° | 3 kt | 10000 meters | 26° | 78° | 14° | 57° | 48% | 1019 mb | 1.257 ft | |||
| 05-Eyl | 23:00 | VFR | Variable | 3 kt | 10000 meters | 27° | 80° | 14° | 57° | 45% | 1019 mb | 1.377 ft | |||
| 05-Eyl | 22:30 | VFR | 60° | 5 kt | 10000 meters | 27° | 80° | 15° | 59° | 48% | 1019 mb | 1.377 ft | |||
| 05-Eyl | 22:00 | VFR | 70° | 5 kt | 10000 meters | 28° | 82° | 14° | 57° | 42% | 1019 mb | 1.497 ft | |||
| 05-Eyl | 21:30 | VFR | 70° | 6 kt | 10000 meters | 28° | 82° | 14° | 57° | 42% | 1019 mb | 1.497 ft | |||
| 05-Eyl | 21:00 | VFR | 50° | 4 kt | 10000 meters | 30° | 86° | 14° | 57° | 38% | 1019 mb | 1.737 ft | |||
| 05-Eyl | 20:30 | VFR | 50° | 5 kt | 10000 meters | 31° | 87° | 14° | 57° | 36% | 1019 mb | 1.857 ft | |||
| 05-Eyl | 20:00 | VFR | 60° | 7 kt | 10000 meters | 32° | 89° | 14° | 57° | 34% | 1019 mb | 1.977 ft | |||
| 05-Eyl | 19:30 | VFR | 50° | 7 kt | 10000 meters | 32° | 89° | 14° | 57° | 34% | 1019 mb | 1.977 ft | |||
| 05-Eyl | 19:00 | VFR | 70° | 9 kt | 10000 meters | 33° | 91° | 13° | 55° | 30% | 1019 mb | 2.097 ft | |||
| 05-Eyl | 18:30 | VFR | 70° | 10 kt | 10000 meters | 33° | 91° | 13° | 55° | 30% | 1019 mb | 2.097 ft | |||
| 05-Eyl | 18:00 | VFR | 60° | 10 kt | 10000 meters | 33° | 91° | 13° | 55° | 30% | 1019 mb | 2.097 ft | |||
| 05-Eyl | 17:30 | VFR | 60° | 7 kt | 10000 meters | 32° | 89° | 14° | 57° | 34% | 1020 mb | 1.947 ft | |||
| 05-Eyl | 17:00 | VFR | 70° | 9 kt | 10000 meters | 32° | 89° | 14° | 57° | 34% | 1020 mb | 1.947 ft | |||
| 05-Eyl | 16:30 | VFR | 70° | 9 kt | 10000 meters | 32° | 89° | 16° | 60° | 38% | 1020 mb | 1.947 ft | |||
| 05-Eyl | 16:00 | VFR | 50° | 6 kt | 10000 meters | 31° | 87° | 17° | 62° | 43% | 1021 mb | 1.798 ft | |||
| 05-Eyl | 15:30 | VFR | Variable | 7 kt | 10000 meters | 31° | 87° | 17° | 62° | 43% | 1021 mb | 1.798 ft | |||
| 05-Eyl | 15:00 | VFR | 110° | 5 kt | 10000 meters | 30° | 86° | 17° | 62° | 46% | 1022 mb | 1.648 ft | |||
| 05-Eyl | 14:30 | VFR | 80° | 6 kt | 10000 meters | 29° | 84° | 17° | 62° | 48% | 1022 mb | 1.528 ft | |||
| 05-Eyl | 14:00 | VFR | 80° | 7 kt | 10000 meters | 28° | 82° | 17° | 62° | 51% | 1022 mb | 1.408 ft | |||
| 05-Eyl | 13:30 | VFR | 70° | 8 kt | 10000 meters | 27° | 80° | 16° | 60° | 51% | 1023 mb | 1.259 ft | |||
| 05-Eyl | 13:00 | VFR | 80° | 7 kt | 10000 meters | 26° | 78° | 16° | 60° | 54% | 1023 mb | 1.139 ft | |||
| 05-Eyl | 12:30 | VFR | 50° | 4 kt | 10000 meters | 25° | 77° | 17° | 62° | 61% | 1024 mb | 989 ft |
Giriş
| Tarayıcınız desteklenmiyor. tarayıcınızı yükseltin |
